Time;durP1;ratioP1;P1;durP2;ratioP2;P2;SDS_P1;SDS_P2;PMS_P1;PMS_P2;Temp;Humidity;BMP_temperature;BMP_pressure;BME280_temperature;BME280_humidity;BME280_pressure;Samples;Min_cycle;Max_cycle;Signal;HPM_P1;HPM_P2
2023/06/20 00:00:59;;;;;;;6.68;4.20;;;;;;;14.34;100.00;93298.47;5089997;28;20518;-72
2023/06/20 00:03:26;;;;;;;5.28;3.58;;;;;;;14.31;100.00;93309.28;5109343;28;20562;-72
2023/06/20 00:05:52;;;;;;;6.03;4.03;;;;;;;14.32;100.00;93304.88;5093243;28;20043;-72
2023/06/20 00:08:19;;;;;;;5.60;4.05;;;;;;;14.30;100.00;93299.94;5103857;28;20043;-72
2023/06/20 00:10:47;;;;;;;6.47;4.53;;;;;;;14.32;100.00;93300.50;5109004;28;20076;-72
2023/06/20 00:13:17;;;;;;;5.93;4.15;;;;;;;14.32;100.00;93310.84;5097198;28;20568;-72
2023/06/20 00:15:44;;;;;;;6.45;4.10;;;;;;;14.29;100.00;93298.38;5100333;28;20050;-72
2023/06/20 00:18:11;;;;;;;7.15;4.00;;;;;;;14.29;100.00;93300.97;5103222;28;20043;-72
2023/06/20 00:20:37;;;;;;;6.38;4.18;;;;;;;14.26;100.00;93299.63;5108540;28;20455;-72
2023/06/20 00:23:04;;;;;;;4.90;3.72;;;;;;;14.23;100.00;93294.94;5078242;28;20048;-72
2023/06/20 00:25:31;;;;;;;5.90;3.78;;;;;;;14.30;100.00;93303.31;5105633;28;20096;-72
2023/06/20 00:27:59;;;;;;;5.30;4.00;;;;;;;14.27;100.00;93293.44;5098488;28;20048;-72
2023/06/20 00:30:26;;;;;;;7.47;4.40;;;;;;;14.26;100.00;93301.44;5089502;28;20403;-72
2023/06/20 00:32:52;;;;;;;5.72;3.83;;;;;;;14.25;100.00;93303.22;5108871;28;20043;-72
2023/06/20 00:35:19;;;;;;;5.35;3.83;;;;;;;14.16;100.00;93287.31;5100914;28;20117;-72
2023/06/20 00:37:46;;;;;;;5.60;4.07;;;;;;;14.24;100.00;93293.09;5078200;28;20106;-72
2023/06/20 00:40:12;;;;;;;5.45;3.88;;;;;;;14.19;100.00;93288.66;5105223;28;20051;-72
2023/06/20 00:42:39;;;;;;;5.50;3.75;;;;;;;14.18;100.00;93284.50;5087409;28;20052;-72
2023/06/20 00:45:28;;;;;;;6.10;4.00;;;;;;;14.12;100.00;93290.59;5089937;28;20052;-72
2023/06/20 00:47:57;;;;;;;6.53;3.97;;;;;;;14.09;100.00;93291.81;5096279;28;20052;-72
2023/06/20 00:50:26;;;;;;;7.63;4.25;;;;;;;13.80;100.00;93254.84;5085692;28;20063;-72
2023/06/20 00:52:58;;;;;;;5.95;3.78;;;;;;;13.98;100.00;93292.66;5097088;28;20412;-72
2023/06/20 00:55:25;;;;;;;7.05;4.35;;;;;;;13.93;100.00;93282.97;5088983;28;20043;-72
2023/06/20 00:57:53;;;;;;;6.72;3.95;;;;;;;13.83;100.00;93270.66;5085589;28;20048;-71
2023/06/20 01:00:22;;;;;;;5.82;3.60;;;;;;;13.90;100.00;93286.03;5090287;28;20416;-72
2023/06/20 01:02:49;;;;;;;7.07;3.78;;;;;;;13.89;100.00;93287.06;5090180;28;20084;-72
2023/06/20 01:05:17;;;;;;;6.68;4.57;;;;;;;13.84;100.00;93285.13;5101443;28;20048;-72
2023/06/20 01:07:50;;;;;;;6.38;4.38;;;;;;;13.82;100.00;93294.13;5100417;28;20086;-71
2023/06/20 01:10:29;;;;;;;5.30;3.67;;;;;;;13.80;100.00;93290.97;5090540;28;20040;-72
2023/06/20 01:13:03;;;;;;;7.65;3.83;;;;;;;13.74;100.00;93285.72;5089542;28;20070;-72
2023/06/20 01:15:42;;;;;;;6.25;3.95;;;;;;;13.67;100.00;93292.81;5095318;28;20101;-72
2023/06/20 01:18:18;;;;;;;6.78;4.15;;;;;;;13.55;100.00;93274.75;5101404;28;20445;-72
2023/06/20 01:20:50;;;;;;;6.88;4.03;;;;;;;13.57;100.00;93293.34;5091720;28;20043;-72
2023/06/20 01:23:25;;;;;;;6.93;4.53;;;;;;;13.53;100.00;93279.34;5102005;28;20086;-72
2023/06/20 01:25:59;;;;;;;5.60;4.32;;;;;;;13.47;100.00;93281.03;5091341;28;20484;-72
2023/06/20 01:28:32;;;;;;;5.85;3.55;;;;;;;13.43;100.00;93282.44;5078306;28;20078;-72
2023/06/20 01:31:05;;;;;;;7.20;4.32;;;;;;;13.42;100.00;93286.03;5086525;28;20413;-72
2023/06/20 01:33:38;;;;;;;5.82;4.00;;;;;;;13.45;100.00;93295.94;5105263;28;20047;-72
2023/06/20 01:36:07;;;;;;;5.47;3.88;;;;;;;13.32;100.00;93272.91;5107690;28;20101;-72
2023/06/20 01:38:39;;;;;;;6.72;4.20;;;;;;;13.14;100.00;93302.97;5096054;28;20040;-72
2023/06/20 01:41:07;;;;;;;7.95;4.45;;;;;;;13.18;100.00;93285.25;5088875;28;20452;-72
2023/06/20 01:43:37;;;;;;;6.22;4.47;;;;;;;13.20;100.00;93291.75;5107130;28;20712;-72
2023/06/20 01:46:06;;;;;;;6.45;4.63;;;;;;;13.16;100.00;93284.69;5106571;28;20051;-72
2023/06/20 01:48:35;;;;;;;6.88;4.78;;;;;;;13.26;100.00;93284.94;5083692;28;20044;-72
2023/06/20 01:51:02;;;;;;;6.07;3.88;;;;;;;13.28;100.00;93290.66;5101810;28;20447;-72
2023/06/20 01:53:30;;;;;;;6.32;4.60;;;;;;;13.29;100.00;93286.28;5107534;28;20123;-72
2023/06/20 01:56:02;;;;;;;7.25;4.28;;;;;;;13.28;100.00;93285.50;5104695;28;20492;-72
2023/06/20 01:58:30;;;;;;;6.00;4.43;;;;;;;13.32;100.00;93291.78;5084222;28;20044;-72
2023/06/20 02:00:58;;;;;;;7.50;4.18;;;;;;;13.34;100.00;93292.31;5084117;28;20090;-72
2023/06/20 02:03:27;;;;;;;6.18;4.22;;;;;;;13.29;100.00;93294.78;5099372;28;20100;-72
2023/06/20 02:05:57;;;;;;;5.43;3.80;;;;;;;13.11;100.00;93287.97;5089434;28;20048;-72
2023/06/20 02:08:25;;;;;;;5.75;4.10;;;;;;;12.95;100.00;93268.75;5100738;28;20067;-72
2023/06/20 02:10:53;;;;;;;6.32;4.50;;;;;;;13.20;100.00;93296.91;5094562;28;20093;-72
2023/06/20 02:13:23;;;;;;;6.32;4.47;;;;;;;13.20;100.00;93299.50;5085893;28;20572;-72
2023/06/20 02:15:52;;;;;;;6.22;4.32;;;;;;;13.19;100.00;93310.06;5079033;28;20539;-72
2023/06/20 02:18:19;;;;;;;7.75;3.70;;;;;;;13.14;100.00;93308.13;5098809;28;20047;-72
2023/06/20 02:20:48;;;;;;;5.55;3.90;;;;;;;13.10;100.00;93305.22;5099523;28;20506;-72
2023/06/20 02:23:17;;;;;;;6.32;3.95;;;;;;;13.08;100.00;93309.81;5088322;28;20043;-72
2023/06/20 02:25:46;;;;;;;5.57;3.85;;;;;;;13.05;100.00;93306.91;5107124;28;20093;-72
2023/06/20 02:28:15;;;;;;;7.88;4.00;;;;;;;12.98;100.00;93296.69;5088555;28;20497;-71
2023/06/20 02:30:45;;;;;;;6.70;5.05;;;;;;;13.02;100.00;93304.75;5093165;28;20041;-72
2023/06/20 02:33:14;;;;;;;6.07;4.28;;;;;;;13.01;100.00;93309.13;5084552;28;20085;-72
2023/06/20 02:35:43;;;;;;;5.45;4.15;;;;;;;13.01;100.00;93309.13;5107151;28;20578;-73
2023/06/20 02:38:12;;;;;;;7.38;4.15;;;;;;;13.02;100.00;93304.75;5096583;28;20106;-72
2023/06/20 02:40:38;;;;;;;7.68;4.30;;;;;;;12.96;100.00;93309.78;5093446;28;20052;-71
2023/06/20 02:43:06;;;;;;;8.13;5.00;;;;;;;12.97;100.00;93313.16;5110527;28;20095;-71
2023/06/20 02:45:33;;;;;;;5.80;4.03;;;;;;;12.97;100.00;93315.75;5101094;28;20036;-71
2023/06/20 02:48:18;;;;;;;7.00;4.40;;;;;;;12.98;100.00;93307.00;5105222;28;20073;-71
2023/06/20 02:50:56;;;;;;;7.13;4.38;;;;;;;13.01;100.00;93314.28;5092480;28;20808;-71
2023/06/20 02:53:30;;;;;;;5.90;4.78;;;;;;;12.98;100.00;93306.19;5090715;28;20101;-71
2023/06/20 02:56:01;;;;;;;6.78;4.53;;;;;;;13.01;100.00;93314.28;5110529;28;20124;-71
2023/06/20 02:58:30;;;;;;;6.50;4.32;;;;;;;13.00;100.00;93322.25;5106307;28;20048;-72
2023/06/20 03:01:00;;;;;;;6.88;4.57;;;;;;;12.95;100.00;93321.13;5090059;28;20109;-72
2023/06/20 03:03:34;;;;;;;10.82;4.43;;;;;;;12.88;100.00;93312.72;5107910;28;20044;-71
2023/06/20 03:06:02;;;;;;;6.40;4.28;;;;;;;12.92;100.00;93320.78;5110435;28;20040;-71
2023/06/20 03:08:30;;;;;;;7.30;5.22;;;;;;;12.94;100.00;93331.66;5102333;28;20493;-71
2023/06/20 03:10:59;;;;;;;8.63;5.45;;;;;;;12.94;100.00;93334.22;5091704;28;20097;-72
2023/06/20 03:13:26;;;;;;;7.82;5.07;;;;;;;12.81;100.00;93322.31;5082079;28;20052;-71
2023/06/20 03:15:54;;;;;;;7.05;4.88;;;;;;;12.87;100.00;93336.88;5102456;28;20047;-71
2023/06/20 03:18:21;;;;;;;7.60;5.40;;;;;;;12.89;100.00;93332.31;5110047;28;20550;-71
2023/06/20 03:20:49;;;;;;;6.38;4.82;;;;;;;12.82;100.00;93332.41;5110183;28;20055;-71
2023/06/20 03:23:16;;;;;;;6.93;4.75;;;;;;;12.65;100.00;93303.88;5094555;28;20101;-71
2023/06/20 03:25:44;;;;;;;7.85;5.28;;;;;;;12.93;100.00;93341.19;5099463;28;20505;-72
2023/06/20 03:28:11;;;;;;;6.93;4.60;;;;;;;13.01;100.00;93339.28;5082821;28;20040;-71
2023/06/20 03:30:37;;;;;;;7.65;5.45;;;;;;;13.06;100.00;93339.41;5103451;28;20100;-71
2023/06/20 03:33:04;;;;;;;9.20;6.38;;;;;;;13.12;100.00;93340.31;5102821;28;20052;-72
2023/06/20 03:35:31;;;;;;;12.88;6.07;;;;;;;13.18;100.00;93352.31;5076709;28;20095;-72
2023/06/20 03:37:59;;;;;;;9.07;5.13;;;;;;;13.21;100.00;93354.47;5095951;28;20098;-72
2023/06/20 03:40:25;;;;;;;6.15;4.53;;;;;;;13.25;100.00;93353.03;5086618;28;20106;-72
2023/06/20 03:42:52;;;;;;;19.02;7.10;;;;;;;13.29;100.00;93358.50;5104495;28;20101;-72
2023/06/20 03:45:19;;;;;;;15.00;5.45;;;;;;;13.30;100.00;93360.09;5078189;28;20144;-72
2023/06/20 03:47:45;;;;;;;7.47;5.22;;;;;;;13.33;100.00;93363.00;5077325;28;20043;-71
2023/06/20 03:50:12;;;;;;;8.30;4.93;;;;;;;13.38;100.00;93362.31;5085436;28;20126;-72
2023/06/20 03:52:39;;;;;;;6.80;4.97;;;;;;;13.39;100.00;93351.00;5107908;28;20096;-71
2023/06/20 03:55:08;;;;;;;6.70;4.57;;;;;;;13.42;100.00;93353.13;5089335;28;20048;-71
2023/06/20 03:57:35;;;;;;;15.07;7.00;;;;;;;13.46;100.00;93364.63;5103616;28;20497;-71
2023/06/20 04:00:06;;;;;;;8.32;5.63;;;;;;;13.52;100.00;93357.75;5109450;28;20044;-71
2023/06/20 04:02:33;;;;;;;6.25;4.90;;;;;;;13.56;100.00;93361.47;5090208;28;20052;-71
2023/06/20 04:05:00;;;;;;;7.05;4.63;;;;;;;13.58;100.00;93354.31;5099364;28;20044;-72
2023/06/20 04:07:31;;;;;;;8.63;4.60;;;;;;;13.63;100.00;93362.16;5109484;28;20508;-71
2023/06/20 04:09:58;;;;;;;7.28;4.88;;;;;;;13.72;100.00;93360.03;5104401;28;20507;-71
2023/06/20 04:12:26;;;;;;;7.57;4.45;;;;;;;13.78;100.00;93357.56;5091681;28;20386;-71
2023/06/20 04:14:53;;;;;;;9.23;4.65;;;;;;;13.61;100.00;93322.88;5107813;28;20564;-72
2023/06/20 04:17:20;;;;;;;8.52;4.97;;;;;;;13.83;100.00;93350.69;5088966;28;20045;-72
2023/06/20 04:19:47;;;;;;;8.30;5.32;;;;;;;13.97;100.00;93366.72;5090060;28;20092;-71
2023/06/20 04:22:14;;;;;;;6.85;4.65;;;;;;;14.02;100.00;93366.03;5091870;28;20106;-71
2023/06/20 04:24:41;;;;;;;8.88;5.90;;;;;;;14.08;100.00;93367.75;5089596;28;20414;-71
2023/06/20 04:27:08;;;;;;;7.68;5.10;;;;;;;14.13;100.00;93364.47;5098207;28;20052;-71
2023/06/20 04:29:36;;;;;;;10.98;6.53;;;;;;;14.23;100.00;93364.69;5108501;28;20047;-71
2023/06/20 04:32:03;;;;;;;8.48;5.22;;;;;;;14.28;100.00;93357.03;5100694;28;20559;-72
2023/06/20 04:34:29;;;;;;;9.38;6.05;;;;;;;14.37;100.00;93362.63;5085091;28;20040;-72
2023/06/20 04:36:56;;;;;;;7.30;5.13;;;;;;;14.45;100.00;93358.91;5099266;28;20047;-72
2023/06/20 04:39:23;;;;;;;7.45;4.95;;;;;;;14.51;100.00;93357.19;5083322;28;20482;-72
2023/06/20 04:41:49;;;;;;;9.18;6.05;;;;;;;14.59;100.00;93356.03;5107864;28;20039;-72
2023/06/20 04:44:16;;;;;;;9.65;7.15;;;;;;;14.68;100.00;93362.41;5104635;28;20116;-72
2023/06/20 04:46:44;;;;;;;12.23;5.85;;;;;;;14.65;100.00;93366.25;5095075;28;20096;-71
2023/06/20 04:49:11;;;;;;;7.35;5.05;;;;;;;14.69;100.00;93367.34;5096980;28;20040;-71
2023/06/20 04:51:40;;;;;;;8.45;5.15;;;;;;;14.70;100.00;93370.72;5099361;28;20089;-71
2023/06/20 04:54:07;;;;;;;7.15;5.07;;;;;;;14.68;100.00;93368.34;5108467;28;20059;-72
2023/06/20 04:56:40;;;;;;;6.60;5.03;;;;;;;14.72;100.00;93373.84;5099997;28;20116;-71
2023/06/20 04:59:06;;;;;;;6.75;5.05;;;;;;;14.65;100.00;93375.78;5096335;28;20138;-72
2023/06/20 05:01:33;;;;;;;7.57;5.20;;;;;;;14.82;100.00;93375.88;5108159;28;20105;-71
2023/06/20 05:04:03;;;;;;;12.25;5.45;;;;;;;14.95;100.00;93372.22;5099257;28;20040;-71
2023/06/20 05:06:30;;;;;;;10.48;5.82;;;;;;;15.10;100.00;93376.88;5097970;28;20476;-71
2023/06/20 05:08:57;;;;;;;7.18;5.50;;;;;;;15.14;100.00;93365.00;5107770;28;20047;-71
2023/06/20 05:11:23;;;;;;;6.88;5.10;;;;;;;15.23;100.00;93368.78;5107533;28;20047;-71
2023/06/20 05:13:50;;;;;;;7.47;5.47;;;;;;;15.35;100.00;93373.13;5092609;28;20036;-71
2023/06/20 05:16:17;;;;;;;8.05;5.53;;;;;;;15.49;100.00;93374.38;5089893;28;20105;-72
2023/06/20 05:18:44;;;;;;;7.88;5.03;;;;;;;15.63;100.00;93374.84;5107793;28;20035;-72
2023/06/20 05:21:12;;;;;;;7.63;5.35;;;;;;;15.83;100.00;93376.13;5094072;28;20048;-71
2023/06/20 05:23:39;;;;;;;6.72;4.30;;;;;;;15.92;100.00;93375.75;5102758;28;20047;-72
2023/06/20 05:26:06;;;;;;;7.85;5.63;;;;;;;15.99;100.00;93384.94;5107231;28;20048;-72
2023/06/20 05:28:33;;;;;;;8.52;4.97;;;;;;;16.12;100.00;93381.22;5107908;28;20048;-72
2023/06/20 05:30:59;;;;;;;6.40;4.50;;;;;;;16.32;100.00;93372.13;5084273;28;20086;-72
2023/06/20 05:33:26;;;;;;;7.40;5.20;;;;;;;16.51;100.00;93382.19;5100597;28;20066;-72
2023/06/20 05:35:53;;;;;;;6.80;4.85;;;;;;;16.69;100.00;93376.72;5098679;28;20105;-72
2023/06/20 05:38:21;;;;;;;6.95;4.57;;;;;;;16.87;100.00;93364.44;5082740;28;20094;-72
2023/06/20 05:40:47;;;;;;;8.45;4.78;;;;;;;17.14;100.00;93365.47;5092016;28;20100;-72
2023/06/20 05:43:14;;;;;;;7.43;4.95;;;;;;;17.39;100.00;93374.50;5107367;28;20051;-72
2023/06/20 05:45:41;;;;;;;6.38;4.30;;;;;;;17.64;100.00;93368.72;5074773;28;20059;-72
2023/06/20 05:48:08;;;;;;;6.72;4.72;;;;;;;17.92;100.00;93369.41;5089569;28;20090;-72
2023/06/20 05:50:35;;;;;;;6.13;4.30;;;;;;;18.20;100.00;93362.31;5102761;28;20036;-72
2023/06/20 05:53:03;;;;;;;7.75;4.90;;;;;;;18.42;100.00;93364.72;5079369;28;20097;-72
2023/06/20 05:55:31;;;;;;;7.40;4.82;;;;;;;18.68;100.00;93364.81;5096388;28;20470;-72
2023/06/20 05:57:58;;;;;;;5.88;4.20;;;;;;;18.95;100.00;93363.84;5106664;28;20497;-72
2023/06/20 06:00:25;;;;;;;7.20;4.07;;;;;;;19.18;100.00;93358.41;5085812;28;20049;-72
2023/06/20 06:02:52;;;;;;;6.53;4.10;;;;;;;19.58;100.00;93353.47;5097746;28;20044;-72
2023/06/20 06:05:18;;;;;;;8.85;5.53;;;;;;;19.89;100.00;93351.59;5097843;28;20044;-72
2023/06/20 06:07:45;;;;;;;9.18;4.57;;;;;;;20.11;100.00;93345.31;5074811;28;20555;-72
2023/06/20 06:10:12;;;;;;;7.70;4.90;;;;;;;20.42;99.92;93360.81;5096401;28;20077;-72
2023/06/20 06:12:40;;;;;;;9.38;5.05;;;;;;;20.73;98.54;93370.34;5082651;28;20045;-72
2023/06/20 06:15:09;;;;;;;7.88;4.57;;;;;;;20.90;96.58;93370.03;5072902;28;20126;-72
2023/06/20 06:17:36;;;;;;;5.70;4.15;;;;;;;20.98;93.75;93370.50;5092653;28;20345;-72
2023/06/20 06:20:07;;;;;;;9.75;4.43;;;;;;;21.09;96.36;93378.00;5111375;28;20080;-72
2023/06/20 06:22:34;;;;;;;6.78;4.57;;;;;;;21.14;94.23;93384.22;5082411;28;20424;-72
2023/06/20 06:25:01;;;;;;;6.82;4.85;;;;;;;20.98;92.86;93384.34;5100602;28;20047;-72
2023/06/20 06:27:27;;;;;;;7.57;4.75;;;;;;;20.70;95.10;93384.72;5104913;28;20561;-72
2023/06/20 06:29:55;;;;;;;8.73;4.95;;;;;;;20.82;96.05;93381.78;5089442;28;20052;-72
2023/06/20 06:32:22;;;;;;;8.70;4.57;;;;;;;21.12;97.29;93384.53;5108212;28;20048;-72
2023/06/20 06:34:50;;;;;;;7.07;4.40;;;;;;;21.65;94.27;93385.69;5087823;28;20105;-72
2023/06/20 06:37:17;;;;;;;9.55;4.60;;;;;;;22.01;90.94;93388.03;5110864;28;20112;-73
2023/06/20 06:39:44;;;;;;;6.72;4.43;;;;;;;22.30;87.84;93389.03;5094097;28;20559;-72
2023/06/20 06:42:11;;;;;;;7.70;4.65;;;;;;;22.08;83.75;93358.91;5100715;28;20801;-72
2023/06/20 06:44:38;;;;;;;7.97;4.45;;;;;;;22.59;84.79;93393.44;5095800;28;20113;-72
2023/06/20 06:47:06;;;;;;;6.30;3.75;;;;;;;22.83;84.16;93382.16;5110526;28;20493;-72
2023/06/20 06:49:33;;;;;;;8.93;4.75;;;;;;;23.11;82.02;93386.75;5093874;28;20048;-72
2023/06/20 06:51:59;;;;;;;7.65;5.28;;;;;;;23.00;79.09;93381.66;5105782;28;20106;-72
2023/06/20 06:54:26;;;;;;;8.98;4.20;;;;;;;22.82;77.26;93376.13;5110385;28;20452;-72
2023/06/20 06:56:53;;;;;;;6.10;3.80;;;;;;;23.21;77.88;93387.41;5110441;28;20055;-73
2023/06/20 06:59:20;;;;;;;6.97;4.40;;;;;;;23.62;80.25;93385.22;5094202;28;20486;-73
2023/06/20 07:01:46;;;;;;;12.63;5.07;;;;;;;24.07;81.45;93370.84;5104771;28;20048;-73
2023/06/20 07:04:15;;;;;;;6.72;3.75;;;;;;;24.54;79.49;93371.53;5092384;28;20458;-73
2023/06/20 07:06:42;;;;;;;6.47;4.00;;;;;;;24.93;76.43;93372.09;5093119;28;20412;-73
2023/06/20 07:09:09;;;;;;;9.73;4.53;;;;;;;25.15;74.63;93369.78;5081091;28;20522;-73
2023/06/20 07:11:36;;;;;;;8.60;4.53;;;;;;;24.94;72.38;93365.75;5106063;28;20047;-73
2023/06/20 07:14:02;;;;;;;10.35;3.67;;;;;;;25.40;70.42;93367.66;5110292;28;20554;-73
2023/06/20 07:16:31;;;;;;;5.97;3.10;;;;;;;25.35;70.19;93335.13;5092274;28;20044;-73
2023/06/20 07:18:58;;;;;;;10.88;4.60;;;;;;;25.46;68.30;93366.44;5090842;28;20123;-73
2023/06/20 07:21:26;;;;;;;11.98;4.97;;;;;;;25.89;72.73;93359.91;5102211;28;20093;-74
2023/06/20 07:23:53;;;;;;;9.57;4.35;;;;;;;26.31;69.44;93367.53;5089512;28;20052;-73
2023/06/20 07:26:20;;;;;;;8.68;3.28;;;;;;;26.00;63.81;93373.56;5097518;28;20051;-73
2023/06/20 07:28:47;;;;;;;7.38;3.92;;;;;;;25.30;68.36;93368.63;5109670;28;20093;-73
2023/06/20 07:31:17;;;;;;;7.07;3.85;;;;;;;24.67;69.86;93372.59;5097210;28;20106;-73
2023/06/20 07:33:43;;;;;;;14.77;4.80;;;;;;;25.09;71.49;93366.50;5097574;28;20566;-73
2023/06/20 07:36:10;;;;;;;10.27;4.93;;;;;;;25.55;68.62;93371.78;5100849;28;20089;-73
2023/06/20 07:38:38;;;;;;;8.80;4.10;;;;;;;25.94;70.90;93372.94;5092200;28;20082;-73
2023/06/20 07:41:05;;;;;;;8.23;3.55;;;;;;;26.01;66.41;93369.88;5092409;28;20048;-73
2023/06/20 07:43:32;;;;;;;6.35;4.18;;;;;;;26.22;64.84;93385.91;5091959;28;20036;-74
2023/06/20 07:45:59;;;;;;;9.27;4.47;;;;;;;26.22;63.05;93380.63;5107530;28;20048;-73
2023/06/20 07:48:27;;;;;;;7.32;3.40;;;;;;;26.25;65.70;93351.06;5086656;28;20493;-73
2023/06/20 07:50:53;;;;;;;8.02;3.80;;;;;;;26.87;64.80;93374.13;5102299;28;20248;-73
2023/06/20 07:53:20;;;;;;;10.63;4.25;;;;;;;26.91;64.46;93375.88;5109864;28;20101;-74
2023/06/20 07:55:48;;;;;;;8.30;4.35;;;;;;;26.71;61.14;93379.09;5102586;28;20085;-73
2023/06/20 07:58:15;;;;;;;9.05;4.75;;;;;;;26.22;63.93;93382.47;5083356;28;20047;-73
2023/06/20 08:00:43;;;;;;;7.13;3.45;;;;;;;26.21;61.58;93386.19;5083784;28;20497;-73
2023/06/20 08:03:10;;;;;;;9.75;3.85;;;;;;;26.61;64.22;93380.91;5100755;28;20051;-73
2023/06/20 08:05:37;;;;;;;7.15;3.78;;;;;;;26.61;63.30;93383.56;5107742;28;20036;-73
2023/06/20 08:08:04;;;;;;;9.23;4.88;;;;;;;26.37;62.26;93384.75;5106019;28;20051;-72
2023/06/20 08:10:31;;;;;;;7.72;3.70;;;;;;;26.43;64.71;93382.75;5080019;28;20036;-72
2023/06/20 08:12:59;;;;;;;7.72;4.13;;;;;;;25.80;64.36;93383.53;5099225;28;20048;-72
2023/06/20 08:15:26;;;;;;;8.00;3.75;;;;;;;26.01;66.25;93377.78;5083907;28;20090;-72
2023/06/20 08:17:52;;;;;;;8.38;4.07;;;;;;;26.47;64.50;93378.41;5094061;28;20501;-72
2023/06/20 08:20:20;;;;;;;6.05;3.35;;;;;;;26.44;61.75;93381.66;5108653;28;20092;-72
2023/06/20 08:22:47;;;;;;;4.93;3.25;;;;;;;26.38;63.71;93377.63;5083226;28;20131;-73
2023/06/20 08:25:14;;;;;;;9.95;4.10;;;;;;;26.27;61.87;93385.00;5093982;28;20467;-73
2023/06/20 08:27:41;;;;;;;6.57;4.60;;;;;;;26.41;63.16;93369.09;5087453;28;20045;-73
2023/06/20 08:30:11;;;;;;;6.97;3.60;;;;;;;26.78;62.27;93382.81;5096815;28;20460;-73
2023/06/20 08:32:39;;;;;;;6.35;3.67;;;;;;;27.32;64.39;93381.78;5092580;28;20131;-73
2023/06/20 08:35:08;;;;;;;8.25;3.72;;;;;;;27.80;60.48;93374.00;5095948;28;20713;-73
2023/06/20 08:37:34;;;;;;;8.45;4.30;;;;;;;28.04;59.70;93380.59;5084316;28;20052;-73
2023/06/20 08:40:03;;;;;;;6.30;3.53;;;;;;;28.01;61.53;93387.28;5102346;28;20043;-73
2023/06/20 08:42:30;;;;;;;9.38;4.72;;;;;;;27.51;61.24;93390.47;5108599;28;20509;-73
2023/06/20 08:44:57;;;;;;;8.70;4.28;;;;;;;28.22;64.12;93386.59;5090451;28;20167;-73
2023/06/20 08:47:25;;;;;;;7.28;3.40;;;;;;;28.67;61.13;93384.53;5102237;28;20444;-73
2023/06/20 08:49:52;;;;;;;5.53;3.00;;;;;;;29.10;58.19;93395.94;5107954;28;20043;-73
2023/06/20 08:52:24;;;;;;;5.07;3.08;;;;;;;29.22;55.55;93389.94;5107061;28;20518;-73
2023/06/20 08:54:52;;;;;;;5.20;2.75;;;;;;;27.87;56.98;93386.72;5084083;28;20094;-73
2023/06/20 08:57:19;;;;;;;4.30;2.85;;;;;;;27.88;56.56;93388.25;5086607;28;20070;-73
2023/06/20 08:59:45;;;;;;;5.65;3.20;;;;;;;27.99;57.55;93378.13;5089426;28;20052;-73
2023/06/20 09:02:13;;;;;;;11.00;3.28;;;;;;;28.10;58.81;93381.97;5105260;28;20047;-73
2023/06/20 09:04:41;;;;;;;5.25;3.45;;;;;;;27.74;59.45;93383.94;5092298;28;20040;-73
2023/06/20 09:07:18;;;;;;;4.18;2.70;;;;;;;26.91;54.66;93385.63;5098330;28;20044;-73
2023/06/20 09:09:44;;;;;;;5.45;2.90;;;;;;;27.07;55.92;93378.06;5084998;28;20450;-73
2023/06/20 09:12:11;;;;;;;5.18;2.60;;;;;;;27.30;57.40;93376.03;5107090;28;20093;-74
2023/06/20 09:14:38;;;;;;;5.03;2.85;;;;;;;26.54;58.65;93380.59;5096269;28;20044;-74
2023/06/20 09:17:05;;;;;;;4.53;3.17;;;;;;;25.96;60.77;93380.53;5092438;28;20051;-73
2023/06/20 09:19:43;;;;;;;5.63;2.90;;;;;;;25.43;61.56;93370.44;5107384;28;20545;-74
2023/06/20 09:22:12;;;;;;;4.22;2.83;;;;;;;24.77;62.98;93371.59;5101223;28;20147;-74
2023/06/20 09:24:42;;;;;;;3.90;2.67;;;;;;;24.88;66.20;93372.19;5093795;28;20055;-73
2023/06/20 09:27:09;;;;;;;4.75;2.97;;;;;;;25.13;59.94;93371.94;5107740;28;20089;-73
2023/06/20 09:29:49;;;;;;;4.82;3.15;;;;;;;25.41;60.08;93377.84;5078847;28;20085;-73
2023/06/20 09:32:20;;;;;;;4.97;2.95;;;;;;;25.44;60.30;93377.25;5098747;28;20051;-73
2023/06/20 09:34:48;;;;;;;3.85;2.78;;;;;;;25.88;59.90;93372.28;5107326;28;20057;-73
2023/06/20 09:37:16;;;;;;;5.85;3.15;;;;;;;26.01;55.22;93370.63;5089432;28;20101;-73
2023/06/20 09:39:43;;;;;;;5.32;2.83;;;;;;;26.73;59.08;93358.47;5099751;28;20047;-74
2023/06/20 09:42:13;;;;;;;3.72;2.60;;;;;;;26.40;52.53;93365.72;5079696;28;20051;-72
2023/06/20 09:44:41;;;;;;;4.07;2.10;;;;;;;26.61;55.34;93359.09;5097671;28;20050;-73
2023/06/20 09:47:08;;;;;;;5.25;2.90;;;;;;;26.80;51.22;93367.47;5083384;28;20048;-73
2023/06/20 09:49:35;;;;;;;5.15;3.15;;;;;;;26.60;52.03;93357.53;5083458;28;20058;-73
2023/06/20 09:52:06;;;;;;;4.82;2.75;;;;;;;26.81;52.10;93360.34;5092940;28;20046;-73
2023/06/20 09:54:43;;;;;;;4.28;2.47;;;;;;;26.75;58.26;93362.34;5107692;28;20046;-73
2023/06/20 09:57:16;;;;;;;5.32;3.45;;;;;;;26.14;59.89;93368.19;5107447;28;20550;-73
2023/06/20 09:59:43;;;;;;;5.25;3.10;;;;;;;25.99;61.42;93361.47;5088998;28;20055;-73
2023/06/20 10:02:10;;;;;;;4.07;3.15;;;;;;;26.18;61.85;93357.84;5095507;28;20550;-73
2023/06/20 10:04:42;;;;;;;3.60;2.55;;;;;;;26.36;55.35;93366.59;5096813;28;20044;-73
2023/06/20 10:07:14;;;;;;;4.32;2.85;;;;;;;26.65;59.67;93368.69;5090330;28;20415;-74
2023/06/20 10:09:41;;;;;;;5.07;2.83;;;;;;;26.93;58.45;93359.75;5107333;28;20043;-73
2023/06/20 10:12:10;;;;;;;4.68;2.50;;;;;;;27.16;56.91;93354.34;5104435;28;20052;-73
2023/06/20 10:14:37;;;;;;;3.78;2.45;;;;;;;26.83;52.88;93365.31;5083837;28;20079;-73
2023/06/20 10:17:08;;;;;;;3.15;2.20;;;;;;;26.34;53.88;93372.16;5102132;28;20558;-73
2023/06/20 10:19:48;;;;;;;4.57;2.70;;;;;;;26.27;55.63;93361.31;5088234;28;20048;-73
2023/06/20 10:22:33;;;;;;;4.53;2.80;;;;;;;27.07;56.09;93355.13;5090944;28;20052;-74
2023/06/20 10:25:03;;;;;;;4.90;3.22;;;;;;;26.60;53.09;93371.47;5093549;28;20490;-72
2023/06/20 10:27:38;;;;;;;4.72;2.88;;;;;;;26.84;55.87;93369.50;5088630;28;20051;-73
2023/06/20 10:30:06;;;;;;;4.57;2.75;;;;;;;26.76;54.54;93363.91;5103347;28;20044;-73
2023/06/20 10:32:33;;;;;;;4.75;3.08;;;;;;;26.80;57.36;93364.06;5091309;28;20171;-73
2023/06/20 10:35:07;;;;;;;12.13;4.70;;;;;;;26.74;54.27;93367.94;5091093;28;20559;-72
2023/06/20 10:37:39;;;;;;;4.55;3.03;;;;;;;26.95;53.63;93357.59;5106961;28;20043;-73
2023/06/20 10:40:10;;;;;;;31.80;3.58;;;;;;;26.47;54.24;93362.59;5107066;28;20055;-73
2023/06/20 10:42:39;;;;;;;4.43;2.75;;;;;;;26.04;56.31;93361.34;5088267;28;20080;-73
2023/06/20 10:45:26;;;;;;;4.50;2.35;;;;;;;26.30;56.18;93347.53;5093619;28;20040;-73
2023/06/20 10:47:53;;;;;;;4.78;2.40;;;;;;;25.98;55.52;93354.69;5106728;28;20075;-73
2023/06/20 10:50:21;;;;;;;3.80;2.40;;;;;;;26.47;57.85;93325.72;5089804;28;20109;-73
2023/06/20 10:52:49;;;;;;;4.20;2.53;;;;;;;26.22;54.63;93335.88;5081359;28;20040;-73
2023/06/20 10:55:17;;;;;;;5.28;3.08;;;;;;;25.99;56.28;93327.28;5098160;28;20048;-73
2023/06/20 10:57:45;;;;;;;4.55;3.25;;;;;;;25.84;57.00;93341.63;5106336;28;20072;-73
2023/06/20 11:00:14;;;;;;;4.95;2.80;;;;;;;25.74;55.23;93334.75;5081776;28;20135;-72
2023/06/20 11:02:43;;;;;;;4.82;2.92;;;;;;;25.68;55.90;93336.72;5092822;28;20040;-74
2023/06/20 11:05:10;;;;;;;4.88;2.88;;;;;;;25.84;55.09;93334.50;5094348;28;20044;-73
2023/06/20 11:07:52;;;;;;;5.18;2.97;;;;;;;26.04;56.68;93331.63;5093838;28;20093;-73
2023/06/20 11:10:20;;;;;;;4.72;3.13;;;;;;;26.66;57.78;93335.22;5094551;28;20048;-73
2023/06/20 11:12:47;;;;;;;5.38;3.47;;;;;;;26.75;56.83;93327.34;5089584;28;20125;-74
2023/06/20 11:15:24;;;;;;;4.13;2.63;;;;;;;26.37;56.51;93331.28;5091751;28;20056;-74
2023/06/20 11:17:51;;;;;;;4.47;2.90;;;;;;;26.08;56.78;93330.72;5092166;28;20058;-74
2023/06/20 11:20:19;;;;;;;6.80;3.15;;;;;;;26.04;57.55;93321.09;5107029;28;20044;-73
2023/06/20 11:22:49;;;;;;;4.93;2.95;;;;;;;26.10;58.09;93325.91;5109328;28;20044;-73
2023/06/20 11:25:27;;;;;;;5.20;3.25;;;;;;;26.33;59.50;93333.00;5085273;28;20048;-73
2023/06/20 11:27:54;;;;;;;4.07;2.97;;;;;;;26.47;59.49;93330.25;5086604;28;20044;-73
2023/06/20 11:30:26;;;;;;;5.05;3.00;;;;;;;25.92;60.83;93330.34;5090259;28;20420;-74
2023/06/20 11:33:00;;;;;;;4.25;2.88;;;;;;;26.17;61.39;93330.75;5109975;28;20336;-73
2023/06/20 11:35:42;;;;;;;5.85;3.60;;;;;;;26.06;58.75;93322.34;5110121;28;20451;-73